Randlett, OK (73562)

9:14 AM CST on February 09, 2016 (GMT -0600)
St. John the Divine Anglican Church | | Change Station
CLOSE
Current Station
Personal Weather Station
Location: Burkburnett, TX
Elevation: 30 ft
Nearby Weather Stations

Elev 30 ft 34.08 °N, 98.56 °W | Updated 3 seconds ago

Partly Cloudy
Partly Cloudy
39.4 °F
Feels Like 36 °F
N
5.1
Wind Variable Wind from NNW
Gusts 7.4 mph

Today
High -- | Low -- °F
--% Chance of Precip.
Yesterday
High -- | Low -- °F
Precip. -- in
Pressure 30.32 in
Visibility 10.0 miles
Clouds Mostly Cloudy 30000 ft
Windchill 36 °F
Dew Point 25 °F
Humidity 55%
Rainfall 0.00 in
Snow Depth Not available.
7:24 AM 6:11 PM
New Moon, 1% visible
METAR KSPS 091452Z 29010KT 10SM BKN300 03/M06 A3031 RMK AO2 SLP267 T00331056 51007
Pressure 30.32 in
Visibility 10.0 miles
Clouds Mostly Cloudy 30000 ft
Windchill 36 °F
Dew Point 25 °F
Humidity 55%
Rainfall 0.00 in
Snow Depth Not available.
7:24 AM 6:11 PM
New Moon, 1% visible
METAR KSPS 091452Z 29010KT 10SM BKN300 03/M06 A3031 RMK AO2 SLP267 T00331056 51007

10-Day Weather Forecast

Almanac

Astronomy

Feb. 09, 2016 Rise Set
Actual Time
Civil Twilight
Nautical Twilight
Astronomical Twilight
Moon
Length of Visible Light
Length of Day
Tomorrow will be .
, % of the Moon is Illuminated

Today's Extremes

State Highs State Lows

Community

WunderPhotos

Upload Photos

1,891,619 photos uploaded!

WunderBlog® & News

Nearby

Air Quality

  Air Quality AQ Index Pollutant
Not available.

Snow Depth

Station Depth Elevation

Earthquake Activity

City Distance Mag. Time & Date
Minimum magnitude displayed is 2.5.

Coastal Water Temperatures

Place Temperature

Stations

Nearby Weather Stations

Station Location Temp. Windchill Dew Point Humidity Wind Precip. Elev Updated Type
                   

Watches & Warnings

There are currently no watches in effect.